Terminal Aerodrome Forecast
Issued by NWS Raleigh/Durham, NC

Home | Current Version | Previous Version | Text Only | Print | Product List | Glossary On
Versions: 1 2 3 4 5 6 7 8 9 10 11 12 13 14 15 16 17 18 19 20 21 22 23 24 25 26 27 28 29 30 31 32 33 34 35 36 37 38 39 40 41 42 43 44 45 46 47 48 49 50
000
FTUS42 KRAH 281316 AAA
TAFGSO
TAF AMD
KGSO 281316Z 2813/2912 21008KT P6SM SCT009 BKN100
      TEMPO 2813/2815 BKN009
     FM281800 27012G18KT P6SM SCT025
     FM282100 32007KT P6SM BKN250
     FM290600 34005KT 6SM BR BKN250=

USA.gov is the U.S. government's official web portal to all federal, state and local government web resources and services.